Startpagina
METAR-TAF:

METAR-TAF

Vliegvelden :

Liepāja, Letland

breedte: 56-31N, lengte: 021-05E, hoogte: 5 m

Actueel weer

Dit bericht is 34 minuten geleden gemaakt, om 18:50 UTC
Weinig wind
Temperatuur 7°C
Vochtigheid 100%
Druk 1023 hPa
Zicht 10 km of meer

METAR: EVLA 191850Z AUTO 00000KT 9999 NCD 07/07 Q1023

Tijdstip: 22:24 (19:24 UTC)

Verwachting

Dit bericht is 2 uur en het 21 minuten geleden gemaakt, om 17:03 UTC
Verwachting geldig van 19 om 18 UTC tot 20 om 18 UTC
Wind 2 kt uit variabele richting
Zicht 10 km of meer
geen wolken onder 1500 m en geen cumulonimbus
Tijdelijke
van 19 om 18 UTC tot 19 om 20 UTC
Zicht: 4000 m
Ondiepe mist, nevel
Tijdelijke
van 19 om 20 UTC tot 20 om 06 UTC
Zicht: 0500 m
op 100 ft
mist

TAF: EVLA 191703Z 1918/2018 VRB02KT CAVOK TEMPO 1918/1920 4000 MIFG BR TEMPO 1920/2006 0500 FG VV001

Waarnemingen en weersverwachtingen van meer dan 4000 vliegvelden (METAR en TAF).

De beschikbare stations zijn de gele en rode punten op de kaart.

Ga met uw muis naar het station om de naam te zien.

Klik dan om waarnemingen en weersverwachtingen te zien.

kaart wijzigen: klik op de groene knoppen met een zwart kruis om in te zoomen, op de groene knop met een streepje om uit te zoomen of op de groene pijlen voor aangrenzende kaarten.


METAR-TAF: